Sevier River near Sigurd




Date Battery Voltage (V) Panel Temperature (degC) River Stage (ft) River Discharge (cfs)
11/01/2018 12.99 6.97 1.63 80
11/02/2018 13.23 11.13 1.71 91
11/03/2018 13.37 8.96 1.79 99
11/04/2018 13.08 4.86 1.75 94
11/05/2018 13.28 7.89 1.73 91
11/06/2018 13.39 4.20 1.72 90
11/07/2018 13.40 3.18 1.70 88
11/08/2018 13.43 1.32 1.69 87
11/09/2018 13.40 0.52 1.66 82
11/10/2018 13.36 1.49 1.64 80
11/11/2018 13.19 -0.05 1.64 80
11/12/2018 13.40 -1.50 1.66 83
11/13/2018 13.40 0.20 1.66 82
11/14/2018 13.36 3.02 1.64 81
11/15/2018 13.34 2.99 1.68 85
11/16/2018 13.35 4.00 1.70 87
11/17/2018 13.36 4.74 1.70 88
11/18/2018 13.39 3.22 1.71 89
11/19/2018 13.38 -0.12 1.72 91
11/20/2018 13.37 0.26 1.73 94
11/21/2018 13.34 2.12 1.80 100
11/22/2018 12.81 3.21 1.85 106
11/23/2018 13.02 6.94 1.90 114
11/24/2018 12.71 4.42 1.93 118
11/25/2018 13.21 -2.28 1.97 125
11/26/2018 13.39 -1.04 1.95 122
11/27/2018 13.18 2.19 1.93 119
11/28/2018 12.77 4.70 1.99 127
11/29/2018 12.69 6.09 2.05 137
11/30/2018 12.66 3.80 2.07 139
Average 98
Maximum 139
Minimum 80
Total Volume (AF) 5,848